Aviation Digital Data Service (ADDS)

Output produced by METARs form (0021 UTC 25 November 2014)
found at http://aviationweather.gov/adds/metars/
 
KVQQ 242341Z 2500/2524 20006KT P6SM VCSH SCT045 SCT120 BKN250 
     FM250400 20004KT 5SM -RADZ BR SCT010 BKN040 
     FM250700 23004KT 2SM -RADZ BR OVC005 
     FM251200 29004KT 2SM -RADZ BR OVC005 
     FM251700 33006KT 4SM -RADZ BR SCT008 BKN010